Time;durP1;ratioP1;P1;durP2;ratioP2;P2;SDS_P1;SDS_P2;PMS_P1;PMS_P2;Temp;Humidity;BMP_temperature;BMP_pressure;BME280_temperature;BME280_humidity;BME280_pressure;Samples;Min_cycle;Max_cycle;Signal;HPM_P1;HPM_P2
2022/11/04 00:01:22;;;;;;;74.85;31.85;;;256.10;2252.80;;;;;;4974369;28;20039;-61
2022/11/04 00:03:48;;;;;;;67.90;30.23;;;256.10;2252.80;;;;;;4974681;28;20043;-61
2022/11/04 00:06:14;;;;;;;77.55;31.90;;;256.60;2252.80;;;;;;4973812;28;20050;-62
2022/11/04 00:08:39;;;;;;;74.40;31.35;;;256.40;2252.80;;;;;;4974381;28;20476;-61
2022/11/04 00:13:49;;;;;;;97.85;32.90;;;256.40;2252.80;;;;;;4973526;28;20081;-62
2022/11/04 00:19:01;;;;;;;119.18;35.63;;;256.80;2252.80;;;;;;4974390;28;20050;-62
2022/11/04 00:29:42;;;;;;;120.53;32.28;;;256.80;2252.80;;;;;;4955146;28;20102;-61
2022/11/04 00:35:13;;;;;;;120.38;30.90;;;256.80;2252.80;;;;;;4932383;29;20130;-62
2022/11/04 00:37:40;;;;;;;184.30;30.98;;;256.80;2252.80;;;;;;4931501;29;20087;-62
2022/11/04 00:40:07;;;;;;;182.13;31.05;;;256.80;2252.80;;;;;;4923397;29;20048;-62
2022/11/04 00:42:33;;;;;;;112.72;31.33;;;256.70;2252.80;;;;;;4936766;29;20484;-62
2022/11/04 00:44:58;;;;;;;164.65;30.27;;;256.50;2252.80;;;;;;4931864;29;20044;-63
2022/11/04 00:47:24;;;;;;;139.23;29.98;;;256.50;2252.80;;;;;;4919400;29;20042;-63
2022/11/04 00:49:50;;;;;;;240.98;31.45;;;256.50;2252.80;;;;;;4932109;29;20027;-62
2022/11/04 00:52:16;;;;;;;227.45;32.22;;;256.50;2252.80;;;;;;4927572;29;20131;-61
2022/11/04 00:54:41;;;;;;;290.92;33.42;;;256.30;2252.80;;;;;;4934030;29;20035;-61
2022/11/04 00:57:11;;;;;;;198.70;32.80;;;256.10;2252.80;;;;;;4934020;29;20511;-61
2022/11/04 00:59:37;;;;;;;326.88;34.47;;;256.20;2252.80;;;;;;4930214;29;20050;-61
2022/11/04 01:02:02;;;;;;;464.58;38.20;;;256.10;2252.80;;;;;;4933918;29;20457;-61
2022/11/04 01:04:28;;;;;;;403.23;36.38;;;256.00;2252.80;;;;;;4933195;29;20047;-61
2022/11/04 01:06:54;;;;;;;367.15;36.42;;;256.00;2252.80;;;;;;4969389;28;20485;-61
2022/11/04 01:09:20;;;;;;;391.73;38.95;;;256.20;2252.80;;;;;;4973852;28;20050;-61
2022/11/04 01:11:46;;;;;;;376.85;40.17;;;256.00;2252.80;;;;;;4973983;28;20026;-61
2022/11/04 01:14:12;;;;;;;435.77;41.47;;;231.30;2252.80;;;;;;4964350;28;20047;-61
2022/11/04 01:16:38;;;;;;;270.13;37.15;;;231.10;2252.80;;;;;;4972579;28;20029;-61
2022/11/04 01:19:04;;;;;;;238.63;35.75;;;231.20;2252.80;;;;;;4973836;28;20023;-62
2022/11/04 01:21:30;;;;;;;230.43;33.63;;;231.20;2252.80;;;;;;4972939;28;20453;-63
2022/11/04 01:23:56;;;;;;;351.15;38.83;;;231.10;2252.80;;;;;;4974081;28;20030;-63
2022/11/04 01:26:23;;;;;;;307.83;36.72;;;231.00;2252.80;;;;;;4969647;28;20491;-63
2022/11/04 01:28:51;;;;;;;343.45;38.60;;;230.80;2252.80;;;;;;4973916;28;20154;-63
2022/11/04 01:31:20;;;;;;;312.20;38.28;;;230.70;2252.80;;;;;;4973905;28;20031;-64
2022/11/04 01:33:46;;;;;;;453.20;45.20;;;230.50;2252.80;;;;;;4974084;28;20027;-63
2022/11/04 01:36:12;;;;;;;269.73;37.30;;;230.50;2252.80;;;;;;4973863;28;20069;-60
2022/11/04 01:38:38;;;;;;;236.63;36.45;;;230.60;2252.80;;;;;;4973745;28;20031;-63
2022/11/04 01:41:04;;;;;;;245.05;35.97;;;230.70;2252.80;;;;;;4973663;28;20073;-63
2022/11/04 01:43:44;;;;;;;306.80;37.83;;;230.70;2252.80;;;;;;4974192;28;20047;-61
2022/11/04 01:46:20;;;;;;;145.52;32.42;;;230.70;2252.80;;;;;;4973314;28;20035;-61
2022/11/04 01:48:46;;;;;;;192.07;29.95;;;230.80;2252.80;;;;;;4972606;28;20022;-61
2022/11/04 01:51:12;;;;;;;230.65;32.55;;;231.00;2252.80;;;;;;4977710;28;20027;-61
2022/11/04 01:53:42;;;;;;;203.52;34.80;;;231.00;2252.80;;;;;;4977296;28;20022;-61
2022/11/04 01:56:11;;;;;;;412.90;38.80;;;231.10;2252.80;;;;;;4977202;28;20077;-61
2022/11/04 01:58:41;;;;;;;380.58;51.25;;;231.20;2252.80;;;;;;4977823;28;20023;-61
2022/11/04 02:01:08;;;;;;;324.42;41.00;;;231.10;2252.80;;;;;;4977278;28;20038;-60
2022/11/04 02:03:39;;;;;;;260.58;37.85;;;231.20;2252.80;;;;;;4973375;28;20034;-61
2022/11/04 02:06:06;;;;;;;204.57;34.35;;;231.00;2252.80;;;;;;4977207;28;20027;-61
2022/11/04 02:08:33;;;;;;;227.30;34.38;;;231.00;2252.80;;;;;;4976947;28;20018;-61
2022/11/04 02:11:01;;;;;;;294.17;36.78;;;231.10;2252.80;;;;;;4977290;28;20476;-61
2022/11/04 02:13:29;;;;;;;267.77;41.50;;;231.10;2252.80;;;;;;4977202;28;20050;-61
2022/11/04 02:16:00;;;;;;;210.73;45.30;;;231.10;2252.80;;;;;;4976930;28;20031;-61
2022/11/04 02:19:13;;;;;;;183.75;33.97;;;231.00;2252.80;;;;;;4976786;28;20473;-61
2022/11/04 02:22:06;;;;;;;294.40;56.10;;;231.00;2252.80;;;;;;4915346;29;20039;-60
2022/11/04 02:24:50;;;;;;;329.55;39.00;;;231.00;2252.80;;;;;;4916068;29;20553;-63
2022/11/04 02:27:35;;;;;;;247.48;40.03;;;230.90;2252.80;;;;;;4916627;29;20036;-61
2022/11/04 02:30:08;;;;;;;;;;;230.90;2252.80;;;;;;4915052;29;20028;-64
2022/11/04 02:32:55;;;;;;;247.35;35.97;;;231.10;2252.80;;;;;;4899602;29;19917;-61
2022/11/04 02:35:23;;;;;;;389.13;41.00;;;231.20;2252.80;;;;;;4902532;29;20036;-61
2022/11/04 02:38:23;;;;;;;309.45;40.20;;;231.20;2252.80;;;;;;4904106;29;20033;-61
2022/11/04 02:41:07;;;;;;;498.20;50.85;;;231.10;2252.80;;;;;;4901685;29;20148;-61
2022/11/04 02:43:58;;;;;;;272.02;40.92;;;231.00;2252.80;;;;;;4900939;29;20048;-61
2022/11/04 02:46:45;;;;;;;209.32;37.60;;;231.20;2252.80;;;;;;4903547;29;20523;-61
2022/11/04 02:49:24;;;;;;;277.02;36.47;;;231.10;2252.80;;;;;;4908060;29;20418;-61
2022/11/04 02:51:59;;;;;;;244.73;39.35;;;231.20;2252.80;;;;;;4918717;28;21840;-62
2022/11/04 02:54:33;;;;;;;222.00;39.25;;;231.20;2252.80;;;;;;4968286;28;20058;-62
2022/11/04 02:57:02;;;;;;;251.70;38.10;;;256.00;2252.80;;;;;;4966185;28;20038;-62
2022/11/04 02:59:41;;;;;;;276.60;43.70;;;256.00;2252.80;;;;;;4965231;28;20023;-62
2022/11/04 03:02:12;;;;;;;264.83;41.05;;;231.30;2252.80;;;;;;4966376;28;20499;-61
2022/11/04 03:04:42;;;;;;;146.48;35.88;;;231.30;2252.80;;;;;;4965651;28;20047;-61
2022/11/04 03:07:11;;;;;;;198.27;36.05;;;256.10;2252.80;;;;;;4966425;28;20023;-62
2022/11/04 03:09:40;;;;;;;197.52;39.58;;;256.20;2252.80;;;;;;4967512;28;20038;-61
2022/11/04 03:12:12;;;;;;;244.05;36.80;;;256.40;2252.80;;;;;;4963872;28;20031;-62
2022/11/04 03:14:46;;;;;;;488.90;54.70;;;256.10;2252.80;;;;;;4966221;28;20476;-62
2022/11/04 03:17:41;;;;;;;352.40;45.22;;;256.60;2252.80;;;;;;4966458;28;20034;-62
2022/11/04 03:20:15;;;;;;;259.25;40.17;;;256.00;2252.80;;;;;;4965700;28;20035;-62
2022/11/04 03:22:41;;;;;;;256.20;41.35;;;256.00;2252.80;;;;;;4967800;28;20054;-62
2022/11/04 03:25:08;;;;;;;240.23;41.80;;;231.20;2252.80;;;;;;4965731;28;20117;-62
2022/11/04 03:27:48;;;;;;;207.68;38.40;;;256.10;2252.80;;;;;;4967275;28;20392;-62
2022/11/04 03:30:17;;;;;;;201.50;41.28;;;256.10;2252.80;;;;;;4966500;28;20469;-62
2022/11/04 03:32:57;;;;;;;182.82;38.08;;;256.10;2252.80;;;;;;4963338;28;20030;-62
2022/11/04 03:35:24;;;;;;;243.65;41.15;;;256.10;2252.80;;;;;;4963598;28;20031;-62
2022/11/04 03:37:50;;;;;;;346.77;44.58;;;256.10;2252.80;;;;;;4965436;28;20074;-62
2022/11/04 03:40:19;;;;;;;374.73;49.45;;;256.10;2252.80;;;;;;4965203;28;20039;-62
2022/11/04 03:42:59;;;;;;;294.00;45.20;;;256.00;2252.80;;;;;;4965813;28;20046;-63
2022/11/04 03:45:25;;;;;;;233.52;42.85;;;256.00;2252.80;;;;;;4967476;28;20050;-63
2022/11/04 03:47:51;;;;;;;478.35;53.50;;;256.00;2252.80;;;;;;4967279;28;20540;-63
2022/11/04 03:50:38;;;;;;;225.30;44.17;;;256.10;2252.80;;;;;;4965563;28;20027;-62
2022/11/04 03:53:04;;;;;;;350.65;45.15;;;256.10;2252.80;;;;;;4962602;28;20041;-62
2022/11/04 03:55:37;;;;;;;356.10;46.22;;;256.10;2252.80;;;;;;4966289;28;20023;-63
2022/11/04 03:58:14;;;;;;;312.40;44.53;;;256.30;2252.80;;;;;;4964699;28;20739;-63
2022/11/04 04:00:50;;;;;;;587.60;64.80;;;256.00;2252.80;;;;;;4965809;28;20496;-63
2022/11/04 04:03:31;;;;;;;340.70;46.97;;;256.00;2252.80;;;;;;4947726;28;20481;-62
2022/11/04 04:06:02;;;;;;;258.80;42.17;;;256.00;2252.80;;;;;;4965182;28;20047;-63
2022/11/04 04:08:40;;;;;;;312.08;44.50;;;231.20;2252.80;;;;;;4964538;28;20968;-63
2022/11/04 04:11:27;;;;;;;230.55;42.20;;;231.10;2252.80;;;;;;4966025;28;20049;-62
2022/11/04 04:14:37;;;;;;;288.70;47.42;;;231.10;2252.80;;;;;;4965352;28;20042;-62
2022/11/04 04:17:09;;;;;;;254.93;44.22;;;231.10;2252.80;;;;;;4964733;28;20038;-62
2022/11/04 04:19:36;;;;;;;382.83;50.47;;;231.10;2252.80;;;;;;4958140;28;20057;-63
2022/11/04 04:22:11;;;;;;;239.10;42.30;;;231.20;2252.80;;;;;;4964027;28;20052;-62
2022/11/04 04:27:31;;;;;;;345.88;47.88;;;231.10;2252.80;;;;;;4964650;28;20097;-63
2022/11/04 04:30:12;;;;;;;250.75;43.45;;;231.10;2252.80;;;;;;4963932;28;20035;-63
2022/11/04 04:32:58;;;;;;;325.25;45.78;;;231.00;2252.80;;;;;;4966486;28;20042;-63
2022/11/04 04:35:40;;;;;;;399.40;53.25;;;231.00;2252.80;;;;;;4964589;28;20030;-63
2022/11/04 04:47:05;;;;;;;361.13;48.60;;;231.10;2252.80;;;;;;4963209;28;20100;-63
2022/11/04 04:49:33;;;;;;;229.13;41.88;;;231.00;2252.80;;;;;;4966039;28;20023;-63
2022/11/04 04:52:05;;;;;;;230.07;43.65;;;231.00;2252.80;;;;;;4964290;28;20037;-63
2022/11/04 04:54:31;;;;;;;343.92;47.67;;;231.10;2252.80;;;;;;4963979;28;20492;-63
2022/11/04 04:56:57;;;;;;;369.55;51.95;;;231.10;2252.80;;;;;;4963606;28;20027;-63
2022/11/04 04:59:22;;;;;;;416.50;52.05;;;231.10;2252.80;;;;;;4963779;28;20089;-63
2022/11/04 05:01:48;;;;;;;300.65;47.42;;;231.10;2252.80;;;;;;4961979;28;20049;-63
2022/11/04 05:04:14;;;;;;;361.77;49.53;;;231.20;2252.80;;;;;;4963665;28;20038;-63
2022/11/04 05:06:39;;;;;;;294.40;48.40;;;231.20;2252.80;;;;;;4945953;28;20030;-63
2022/11/04 05:09:05;;;;;;;459.38;53.38;;;231.10;2252.80;;;;;;4962505;28;20042;-63
2022/11/04 05:11:31;;;;;;;252.95;48.30;;;231.00;2252.80;;;;;;4964387;28;20114;-63
2022/11/04 05:13:57;;;;;;;447.25;55.90;;;231.10;2252.80;;;;;;4963562;28;20046;-63
2022/11/04 05:16:23;;;;;;;489.92;55.97;;;231.00;2252.80;;;;;;4964061;28;20037;-63
2022/11/04 05:18:51;;;;;;;409.27;52.58;;;231.00;2252.80;;;;;;4963796;28;20484;-64
2022/11/04 05:21:16;;;;;;;572.72;63.67;;;230.90;2252.80;;;;;;4964140;28;20543;-63
2022/11/04 05:23:42;;;;;;;438.20;54.10;;;230.90;2252.80;;;;;;4965107;28;20042;-63
2022/11/04 05:26:08;;;;;;;326.23;52.60;;;230.80;2252.80;;;;;;4970284;28;20036;-63
2022/11/04 05:28:34;;;;;;;416.08;56.28;;;230.90;2252.80;;;;;;4967358;28;20129;-63
2022/11/04 05:31:04;;;;;;;495.17;59.70;;;231.00;2252.80;;;;;;4967679;28;20030;-63
2022/11/04 05:33:29;;;;;;;346.02;49.15;;;231.10;2252.80;;;;;;4967668;28;20060;-63
2022/11/04 05:36:04;;;;;;;415.30;52.55;;;231.20;2252.80;;;;;;4967277;28;20273;-63
2022/11/04 05:38:30;;;;;;;419.95;54.63;;;231.20;2252.80;;;;;;4970364;28;20456;-64
2022/11/04 05:40:57;;;;;;;437.38;53.10;;;231.20;2252.80;;;;;;4967437;28;20065;-63
2022/11/04 05:43:23;;;;;;;511.25;55.35;;;231.20;2252.80;;;;;;4978066;28;20027;-64
2022/11/04 05:45:48;;;;;;;396.08;51.80;;;231.10;2252.80;;;;;;4977703;28;20094;-63
2022/11/04 05:48:14;;;;;;;492.63;57.15;;;231.10;2252.80;;;;;;4975867;28;20023;-64
2022/11/04 05:50:41;;;;;;;402.63;52.83;;;231.10;2252.80;;;;;;4972994;28;20361;-64
2022/11/04 05:53:07;;;;;;;455.67;57.28;;;231.10;2252.80;;;;;;4978377;28;20073;-64
2022/11/04 05:55:32;;;;;;;395.73;56.60;;;231.20;2252.80;;;;;;4977575;28;20137;-63
2022/11/04 05:57:58;;;;;;;690.63;72.50;;;231.20;2252.80;;;;;;4978203;28;20062;-64
2022/11/04 06:00:26;;;;;;;608.80;64.90;;;231.20;2252.80;;;;;;4973685;28;21676;-63
2022/11/04 06:02:51;;;;;;;572.10;59.88;;;231.20;2252.80;;;;;;4968657;28;20019;-64
2022/11/04 06:05:17;;;;;;;437.33;57.15;;;231.10;2252.80;;;;;;4977670;28;20046;-64
2022/11/04 06:07:42;;;;;;;667.22;109.57;;;231.10;2252.80;;;;;;4977805;28;20031;-64
2022/11/04 06:10:09;;;;;;;453.42;57.33;;;231.10;2252.80;;;;;;4977845;28;20034;-64
2022/11/04 06:12:34;;;;;;;471.55;61.08;;;231.10;2252.80;;;;;;4974539;28;20054;-64
2022/11/04 06:15:00;;;;;;;406.35;53.58;;;231.10;2252.80;;;;;;4968149;28;20045;-64
2022/11/04 06:17:25;;;;;;;413.23;57.00;;;231.10;2252.80;;;;;;4966587;28;20029;-64
2022/11/04 06:19:51;;;;;;;424.38;54.88;;;231.10;2252.80;;;;;;4966993;28;20034;-64
2022/11/04 06:22:18;;;;;;;536.67;63.90;;;231.10;2252.80;;;;;;4972079;28;20100;-64
2022/11/04 06:24:44;;;;;;;358.83;54.60;;;231.10;2252.80;;;;;;4967070;28;20093;-64
2022/11/04 06:27:10;;;;;;;479.63;58.50;;;231.20;2252.80;;;;;;4966024;28;20038;-64
2022/11/04 06:29:40;;;;;;;373.80;54.83;;;231.10;2252.80;;;;;;4966464;28;20085;-64
2022/11/04 06:32:11;;;;;;;356.42;53.50;;;231.10;2252.80;;;;;;4977169;28;20161;-64
2022/11/04 06:34:38;;;;;;;227.45;53.38;;;231.20;2252.80;;;;;;4976669;28;20451;-63
2022/11/04 06:37:04;;;;;;;207.77;53.75;;;256.10;2252.80;;;;;;4968562;28;20113;-63
2022/11/04 06:39:29;;;;;;;252.88;48.17;;;256.50;2252.80;;;;;;4977072;28;20074;-62
2022/11/04 06:41:55;;;;;;;227.85;45.03;;;256.50;2252.80;;;;;;4976819;28;20110;-62
2022/11/04 06:44:21;;;;;;;257.55;44.00;;;256.50;2252.80;;;;;;4975296;28;20050;-63
2022/11/04 06:46:47;;;;;;;252.45;43.60;;;256.50;2252.80;;;;;;4970479;28;20018;-63
2022/11/04 06:49:16;;;;;;;204.10;40.03;;;256.70;2252.80;;;;;;4970573;28;20039;-63
2022/11/04 06:51:42;;;;;;;170.85;40.90;;;256.80;2252.80;;;;;;4976473;28;20031;-62
2022/11/04 06:54:08;;;;;;;158.30;40.53;;;281.90;2278.40;;;;;;4976926;28;20023;-62
2022/11/04 06:56:34;;;;;;;139.18;36.35;;;282.00;2278.40;;;;;;4975672;28;20062;-62
2022/11/04 06:59:00;;;;;;;146.82;36.72;;;;;;;;;;4976461;28;20492;-61
2022/11/04 07:01:28;;;;;;;116.00;35.65;;;;;;;;;;4976995;28;20038;-62
2022/11/04 07:03:55;;;;;;;144.38;38.65;;;;;;;;;;4966043;28;20034;-61
2022/11/04 07:06:21;;;;;;;202.35;43.22;;;;;;;;;;4982303;28;20492;-61
2022/11/04 07:08:49;;;;;;;95.03;36.55;;;;;;;;;;4976167;28;20023;-61
2022/11/04 07:11:16;;;;;;;81.93;32.35;;;307.30;2304.00;;;;;;4977707;28;20055;-61
2022/11/04 07:13:42;;;;;;;76.95;32.42;;;;;;;;;;4976253;28;20074;-62
2022/11/04 07:16:08;;;;;;;74.45;31.10;;;;;;;;;;4975922;28;20122;-62
2022/11/04 07:18:35;;;;;;;79.20;34.50;;;;;;;;;;4976288;28;20023;-63
2022/11/04 07:21:01;;;;;;;83.22;33.20;;;;;;;;;;4976063;28;20472;-62
2022/11/04 07:23:27;;;;;;;71.25;32.42;;;;;;;;;;4985525;28;20023;-63
2022/11/04 07:25:54;;;;;;;67.03;32.45;;;;;;;;;;4976394;28;20023;-64
2022/11/04 07:28:20;;;;;;;59.95;30.67;;;307.40;2304.00;;;;;;4967019;28;20046;-62
2022/11/04 07:30:45;;;;;;;60.63;30.08;;;307.50;2304.00;;;;;;4976139;28;20496;-61
2022/11/04 07:33:11;;;;;;;73.15;33.78;;;307.50;2304.00;;;;;;4976494;28;20110;-61
2022/11/04 07:35:37;;;;;;;69.43;34.08;;;307.80;2304.00;;;;;;4976262;28;20418;-61
2022/11/04 07:38:03;;;;;;;60.85;31.38;;;;;;;;;;4976388;28;20038;-64
2022/11/04 07:40:33;;;;;;;68.80;35.97;;;332.80;2329.60;;;;;;4976242;28;20035;-64
2022/11/04 07:42:59;;;;;;;57.63;33.58;;;333.00;2329.60;;;;;;4975628;28;20524;-63
2022/11/04 07:45:25;;;;;;;63.25;34.97;;;333.50;2329.60;;;;;;4975906;28;20034;-64
2022/11/04 07:47:51;;;;;;;65.60;35.95;;;;;;;;;;4974242;28;20027;-64
2022/11/04 07:50:17;;;;;;;59.75;33.50;;;359.20;2329.60;;;;;;4976278;28;20037;-63
2022/11/04 07:52:43;;;;;;;73.28;41.28;;;;;;;;;;4976349;28;20342;-63
2022/11/04 07:55:09;;;;;;;63.70;35.85;;;384.30;2329.60;;;;;;4975677;28;20552;-63
2022/11/04 07:57:35;;;;;;;;;;;;;;;;;;4976216;28;20111;-63
2022/11/04 08:00:01;;;;;;;61.28;37.22;;;;;;;;;;4975543;28;19945;-63
2022/11/04 08:02:27;;;;;;;;;;;;;;;;;;4976111;28;20027;-63
2022/11/04 08:04:52;;;;;;;;;;;461.20;2380.80;;;;;;4976270;28;19914;-62
2022/11/04 08:07:19;;;;;;;;;;;461.60;2380.80;;;;;;4976345;28;20263;-61
2022/11/04 08:09:44;;;;;;;;;;;461.60;2380.80;;;;;;4975996;28;20329;-61
2022/11/04 08:12:10;;;;;;;;;;;461.30;2380.80;;;;;;4975688;28;19932;-60
2022/11/04 08:14:35;;;;;;;;;;;460.90;2380.80;;;;;;4959334;28;19941;-61
2022/11/04 08:17:01;;;;;;;;;;;435.90;2355.20;;;;;;4956485;28;20360;-61
2022/11/04 08:19:26;;;;;;;;;;;435.80;2355.20;;;;;;4956553;28;19924;-60
2022/11/04 08:21:52;;;;;;;;;;;435.60;2355.20;;;;;;4956566;28;19906;-61
2022/11/04 08:24:18;;;;;;;;;;;435.70;2355.20;;;;;;4956690;28;20380;-61
2022/11/04 08:26:45;;;;;;;50.85;30.77;;;461.10;2380.80;;;;;;4956022;28;19907;-64
2022/11/04 08:29:10;;;;;;;45.72;29.52;;;512.70;2380.80;;;;;;4955828;28;20370;-63
2022/11/04 08:31:36;;;;;;;49.97;31.38;;;563.40;2432.00;;;;;;4955841;28;20020;-63
2022/11/04 08:34:04;;;;;;;44.85;29.50;;;588.80;2355.20;;;;;;4955724;29;20114;-61
2022/11/04 08:36:35;;;;;;;42.08;29.35;;;614.70;2124.80;;;;;;4955725;29;20052;-61
2022/11/04 08:39:03;;;;;;;39.78;28.52;;;640.10;1996.80;;;;;;4955469;29;20581;-61
2022/11/04 08:41:31;;;;;;;41.03;28.30;;;666.20;1843.20;;;;;;4955347;29;20090;-61
2022/11/04 08:43:59;;;;;;;40.05;29.50;;;716.80;1664.00;;;;;;4956051;28;20033;-64
2022/11/04 08:46:28;;;;;;;41.50;29.00;;;716.90;1536.00;;;;;;4955771;29;20027;-63
2022/11/04 08:48:53;;;;;;;41.65;29.50;;;717.30;1510.40;;;;;;4955599;29;20085;-63
2022/11/04 08:51:22;;;;;;;39.95;29.40;;;742.50;1484.80;;;;;;4955591;28;20031;-63
2022/11/04 08:53:48;;;;;;;39.33;29.33;;;768.30;1408.00;;;;;;4955386;28;20103;-64
2022/11/04 08:56:21;;;;;;;40.75;29.88;;;768.40;1331.20;;;;;;4955763;29;20060;-65
2022/11/04 08:58:48;;;;;;;38.88;29.40;;;742.40;1382.40;;;;;;4954899;28;20019;-64
2022/11/04 09:01:14;;;;;;;40.80;29.60;;;692.00;1459.20;;;;;;4955430;29;20024;-65
2022/11/04 09:03:41;;;;;;;36.78;26.92;;;692.00;1433.60;;;;;;4955424;29;20028;-65
2022/11/04 09:06:10;;;;;;;37.60;27.73;;;743.00;1433.60;;;;;;4955395;28;20043;-66
2022/11/04 09:08:38;;;;;;;39.90;27.40;;;768.80;1280.00;;;;;;4955079;28;20038;-66
2022/11/04 09:11:07;;;;;;;;;;;742.90;1331.20;;;;;;4954587;29;20042;-65
2022/11/04 09:13:33;;;;;;;39.63;28.98;;;716.90;1408.00;;;;;;4953753;29;20423;-64
2022/11/04 09:15:59;;;;;;;40.42;27.67;;;716.80;1459.20;;;;;;4951466;28;20043;-66
2022/11/04 09:18:24;;;;;;;41.90;27.92;;;742.90;1382.40;;;;;;4962886;28;20035;-65
2022/11/04 09:20:50;;;;;;;38.90;27.42;;;768.80;1305.60;;;;;;4961731;28;20050;-64
2022/11/04 09:23:15;;;;;;;44.00;29.70;;;742.70;1331.20;;;;;;4972111;28;20113;-62
2022/11/04 09:25:41;;;;;;;46.63;30.15;;;691.50;1408.00;;;;;;4962445;28;20130;-62
2022/11/04 09:28:07;;;;;;;46.47;30.85;;;665.60;1536.00;;;;;;4973486;28;20148;-62
2022/11/04 09:30:33;;;;;;;53.92;33.78;;;614.70;1664.00;;;;;;4971492;28;20034;-62
2022/11/04 09:32:58;;;;;;;59.67;35.65;;;563.70;1920.00;;;;;;4973847;28;20102;-62
2022/11/04 09:35:26;;;;;;;53.95;33.13;;;538.30;2201.60;;;;;;4973492;28;20059;-61
2022/11/04 09:37:52;;;;;;;92.80;59.72;;;537.60;2406.40;;;;;;4961449;28;20082;-62
2022/11/04 09:40:22;;;;;;;145.38;87.57;;;512.30;2380.80;;;;;;4954781;29;20373;-61
2022/11/04 09:43:06;;;;;;;73.65;45.78;;;487.10;2380.80;;;;;;4936707;29;20046;-61
2022/11/04 09:45:32;;;;;;;72.10;41.35;;;486.70;2380.80;;;;;;4954129;28;20043;-61
2022/11/04 09:48:22;;;;;;;46.60;29.50;;;461.70;2380.80;;;;;;4953809;28;20027;-61
2022/11/04 09:50:51;;;;;;;52.38;31.92;;;461.40;2380.80;;;;;;4953309;28;20043;-62
2022/11/04 09:53:20;;;;;;;55.42;31.25;;;461.10;2380.80;;;;;;4954594;29;20039;-62
2022/11/04 09:55:57;;;;;;;56.03;31.17;;;460.90;2380.80;;;;;;4953881;29;20031;-62
2022/11/04 09:58:23;;;;;;;49.58;28.77;;;460.90;2380.80;;;;;;4953878;29;20036;-65
2022/11/04 10:01:21;;;;;;;49.45;27.92;;;436.00;2355.20;;;;;;4960058;28;20022;-64
2022/11/04 10:04:00;;;;;;;48.35;28.58;;;436.00;2355.20;;;;;;4972480;28;20035;-65
2022/11/04 10:06:26;;;;;;;57.95;30.73;;;435.50;2355.20;;;;;;4969249;28;20077;-63
2022/11/04 10:09:12;;;;;;;55.33;31.90;;;410.50;2355.20;;;;;;4966829;28;20063;-64
2022/11/04 10:12:11;;;;;;;58.33;32.13;;;435.20;2355.20;;;;;;4974551;28;20433;-63
2022/11/04 10:14:53;;;;;;;54.20;29.85;;;435.30;2355.20;;;;;;4974950;28;20042;-64
2022/11/04 10:17:40;;;;;;;54.72;31.42;;;435.50;2355.20;;;;;;4968195;28;20053;-57
2022/11/04 10:20:18;;;;;;;56.20;29.27;;;435.70;2355.20;;;;;;4955268;28;20122;-56
2022/11/04 10:23:08;;;;;;;57.63;30.10;;;436.00;2355.20;;;;;;4962631;28;20052;-56
2022/11/04 10:25:42;;;;;;;55.17;26.30;;;460.80;2380.80;;;;;;4970320;28;20043;-57
2022/11/04 10:28:16;;;;;;;49.55;26.08;;;461.10;2380.80;;;;;;4968272;28;20500;-57
2022/11/04 10:30:45;;;;;;;41.85;23.63;;;461.30;2380.80;;;;;;4967302;28;20041;-56
2022/11/04 10:33:36;;;;;;;38.60;22.60;;;461.30;2380.80;;;;;;4967517;28;20045;-55
2022/11/04 10:36:06;;;;;;;36.35;22.83;;;461.60;2380.80;;;;;;4969129;28;20027;-56
2022/11/04 10:38:41;;;;;;;38.15;22.27;;;461.70;2380.80;;;;;;4967840;28;20046;-57
2022/11/04 10:41:12;;;;;;;41.85;22.55;;;461.40;2380.80;;;;;;4970162;28;20027;-57
2022/11/04 10:43:39;;;;;;;39.95;22.42;;;461.10;2380.80;;;;;;4971435;28;20741;-55
2022/11/04 10:46:29;;;;;;;41.70;23.02;;;460.80;2380.80;;;;;;4971259;28;20034;-57
2022/11/04 10:49:32;;;;;;;40.47;23.00;;;435.90;2355.20;;;;;;4971408;28;20515;-56
2022/11/04 10:51:59;;;;;;;42.30;22.73;;;435.80;2355.20;;;;;;4971485;28;20197;-56
2022/11/04 10:54:26;;;;;;;41.75;23.10;;;435.80;2355.20;;;;;;4972561;28;20045;-55
2022/11/04 10:56:54;;;;;;;38.75;23.27;;;435.80;2355.20;;;;;;4973613;28;20477;-57
2022/11/04 10:59:44;;;;;;;48.78;25.40;;;435.80;2355.20;;;;;;4972771;28;20035;-56
2022/11/04 11:02:09;;;;;;;49.03;24.27;;;435.70;2355.20;;;;;;4973103;28;20039;-55
2022/11/04 11:04:37;;;;;;;45.25;24.90;;;435.70;2355.20;;;;;;4971739;28;20362;-56
2022/11/04 11:07:07;;;;;;;42.40;24.30;;;435.40;2355.20;;;;;;4973182;28;20031;-55
2022/11/04 11:09:35;;;;;;;42.10;23.10;;;435.40;2355.20;;;;;;4972594;28;20074;-55
2022/11/04 11:12:05;;;;;;;41.72;23.02;;;435.40;2355.20;;;;;;4963279;28;20028;-55
2022/11/04 11:14:34;;;;;;;40.67;22.27;;;435.40;2355.20;;;;;;4966443;28;20657;-55
2022/11/04 11:17:15;;;;;;;40.03;22.60;;;435.20;2355.20;;;;;;4973492;28;20117;-56
2022/11/04 11:19:49;;;;;;;43.00;26.98;;;435.20;2355.20;;;;;;4974598;28;20362;-56
2022/11/04 11:22:37;;;;;;;45.83;24.67;;;410.40;2355.20;;;;;;4973751;28;20064;-56
2022/11/04 11:25:28;;;;;;;39.17;23.40;;;410.50;2355.20;;;;;;4988218;28;20122;-58
2022/11/04 11:28:08;;;;;;;40.83;23.63;;;410.40;2355.20;;;;;;4975032;28;20547;-58
2022/11/04 11:30:43;;;;;;;40.15;23.65;;;410.30;2355.20;;;;;;4974815;28;20031;-57
2022/11/04 11:33:30;;;;;;;44.35;25.38;;;410.40;2355.20;;;;;;4975430;28;20034;-56
2022/11/04 11:36:10;;;;;;;52.72;28.63;;;410.50;2355.20;;;;;;4975279;28;20110;-56
2022/11/04 11:38:37;;;;;;;65.32;35.50;;;410.50;2355.20;;;;;;4975002;28;20098;-57
2022/11/04 11:41:17;;;;;;;57.58;34.15;;;410.50;2355.20;;;;;;4975693;28;20023;-55
2022/11/04 11:43:50;;;;;;;94.50;55.45;;;435.30;2355.20;;;;;;4974651;28;20031;-57
2022/11/04 11:46:25;;;;;;;65.80;37.25;;;410.50;2355.20;;;;;;4975562;28;20019;-56
2022/11/04 11:49:02;;;;;;;90.47;47.58;;;410.50;2355.20;;;;;;4974707;28;20037;-56
2022/11/04 11:51:32;;;;;;;79.07;43.35;;;410.40;2355.20;;;;;;4975248;28;20041;-55
2022/11/04 11:54:16;;;;;;;72.00;40.70;;;410.50;2355.20;;;;;;4974706;28;20121;-55
2022/11/04 11:57:04;;;;;;;84.60;42.45;;;435.20;2355.20;;;;;;4974444;28;20023;-55
2022/11/04 11:59:52;;;;;;;74.60;41.35;;;435.30;2355.20;;;;;;4973740;28;20046;-55
2022/11/04 12:02:45;;;;;;;75.70;41.30;;;435.30;2355.20;;;;;;4974573;28;20033;-55
2022/11/04 12:05:12;;;;;;;79.13;43.50;;;435.40;2355.20;;;;;;4974537;28;20046;-56
2022/11/04 12:08:24;;;;;;;79.35;44.60;;;435.50;2355.20;;;;;;4977161;28;20362;-57
2022/11/04 12:11:34;;;;;;;74.82;41.78;;;435.50;2355.20;;;;;;4957932;28;20054;-55
2022/11/04 12:14:24;;;;;;;58.05;32.55;;;435.70;2355.20;;;;;;4864055;29;20049;-55
2022/11/04 12:17:09;;;;;;;61.83;34.45;;;435.80;2355.20;;;;;;4858754;29;20065;-56
2022/11/04 12:19:39;;;;;;;57.90;31.40;;;435.80;2355.20;;;;;;4854521;29;20492;-56
2022/11/04 12:22:29;;;;;;;51.22;29.17;;;435.90;2355.20;;;;;;4822445;29;20489;-55
2022/11/04 12:25:08;;;;;;;54.65;29.10;;;435.70;2355.20;;;;;;4843876;29;20070;-56
2022/11/04 12:27:49;;;;;;;59.67;31.70;;;435.70;2355.20;;;;;;4850104;29;20117;-56
2022/11/04 12:30:20;;;;;;;58.65;31.95;;;435.80;2355.20;;;;;;4855555;29;20039;-57
2022/11/04 12:33:13;;;;;;;53.50;29.88;;;435.80;2355.20;;;;;;4850740;29;20121;-56
2022/11/04 12:36:13;;;;;;;45.20;26.17;;;435.80;2355.20;;;;;;4839866;29;20075;-56
2022/11/04 12:38:54;;;;;;;45.40;24.85;;;435.80;2355.20;;;;;;4839991;29;20042;-55
2022/11/04 12:41:56;;;;;;;53.10;29.73;;;435.70;2355.20;;;;;;4849290;29;20129;-55
2022/11/04 12:44:27;;;;;;;62.53;37.53;;;435.70;2355.20;;;;;;4809047;29;20572;-55
2022/11/04 12:46:59;;;;;;;47.80;28.30;;;435.70;2355.20;;;;;;4803645;29;20049;-56
2022/11/04 12:49:51;;;;;;;45.65;25.80;;;435.70;2355.20;;;;;;4803223;29;20096;-55
2022/11/04 12:52:37;;;;;;;47.30;25.52;;;435.60;2355.20;;;;;;4877309;29;20112;-56
2022/11/04 12:55:27;;;;;;;45.15;25.23;;;435.50;2355.20;;;;;;4933383;29;20066;-55
2022/11/04 12:58:22;;;;;;;47.13;26.88;;;435.60;2355.20;;;;;;4952230;29;20035;-56